Time;durP1;ratioP1;P1;durP2;ratioP2;P2;SDS_P1;SDS_P2;PMS_P1;PMS_P2;Temp;Humidity;BMP_temperature;BMP_pressure;BME280_temperature;BME280_humidity;BME280_pressure;Samples;Min_cycle;Max_cycle;Signal;HPM_P1;HPM_P2
2022/08/17 00:01:21;;;;;;;4.55;3.72;;;27.80;49.70;;;;;;4977792;28;20039;-85
2022/08/17 00:03:50;;;;;;;4.45;3.75;;;27.80;49.70;;;;;;4994226;28;20034;-83
2022/08/17 00:06:24;;;;;;;5.07;3.97;;;27.80;49.70;;;;;;4977595;28;20034;-84
2022/08/17 00:08:54;;;;;;;4.93;4.05;;;27.80;49.80;;;;;;4994928;28;20386;-83
2022/08/17 00:11:27;;;;;;;4.32;3.65;;;27.70;49.80;;;;;;4994742;28;20049;-84
2022/08/17 00:13:57;;;;;;;4.50;3.60;;;27.70;49.80;;;;;;4994007;28;20122;-83
2022/08/17 00:16:32;;;;;;;4.20;3.60;;;27.70;49.80;;;;;;4993828;28;20554;-85
2022/08/17 00:19:04;;;;;;;4.72;3.63;;;27.70;49.80;;;;;;4994794;28;20447;-84
2022/08/17 00:21:40;;;;;;;4.50;3.80;;;27.70;49.90;;;;;;4994554;28;20438;-84
2022/08/17 00:24:07;;;;;;;4.60;3.95;;;27.60;49.80;;;;;;4977770;28;20072;-84
2022/08/17 00:26:33;;;;;;;5.00;3.97;;;27.60;49.80;;;;;;4993775;28;20404;-84
2022/08/17 00:29:06;;;;;;;5.25;4.22;;;27.60;49.80;;;;;;4993614;28;20455;-85
2022/08/17 00:31:34;;;;;;;4.80;3.97;;;27.60;49.90;;;;;;4976900;28;20046;-85
2022/08/17 00:34:01;;;;;;;4.53;3.70;;;27.60;49.90;;;;;;4976998;28;20027;-85
2022/08/17 00:36:27;;;;;;;4.60;4.00;;;27.60;49.90;;;;;;4993868;28;20070;-84
2022/08/17 00:38:52;;;;;;;5.15;4.18;;;27.50;49.90;;;;;;4977083;28;20071;-84
2022/08/17 00:41:24;;;;;;;4.53;3.97;;;27.50;49.90;;;;;;4961215;28;20038;-85
2022/08/17 00:44:00;;;;;;;4.53;3.67;;;27.50;50.00;;;;;;4976790;28;20061;-84
2022/08/17 00:46:33;;;;;;;4.38;3.97;;;27.50;50.00;;;;;;4977116;28;20038;-84
2022/08/17 00:49:04;;;;;;;4.60;3.65;;;27.50;50.10;;;;;;4995361;28;20121;-84
2022/08/17 00:51:46;;;;;;;5.32;4.22;;;27.40;49.90;;;;;;4960850;28;20142;-84
2022/08/17 00:54:24;;;;;;;4.60;3.70;;;27.40;50.00;;;;;;4977094;28;20026;-84
2022/08/17 00:56:56;;;;;;;4.55;3.75;;;27.40;50.10;;;;;;4961121;28;20034;-84
2022/08/17 00:59:29;;;;;;;4.10;3.58;;;27.40;50.10;;;;;;4976932;28;20038;-83
2022/08/17 01:01:56;;;;;;;4.60;3.85;;;27.30;50.00;;;;;;4976973;28;20041;-85
2022/08/17 01:04:22;;;;;;;7.10;4.28;;;27.40;50.10;;;;;;4961020;28;20117;-85
2022/08/17 01:06:48;;;;;;;6.18;4.30;;;27.40;50.20;;;;;;4977102;28;20038;-84
2022/08/17 01:09:16;;;;;;;4.63;4.13;;;27.30;50.20;;;;;;4976713;28;20037;-83
2022/08/17 01:11:43;;;;;;;5.07;4.57;;;27.30;50.20;;;;;;4960457;28;20057;-85
2022/08/17 01:14:09;;;;;;;4.82;3.97;;;27.30;50.20;;;;;;4976260;28;20034;-85
2022/08/17 01:16:38;;;;;;;5.47;4.20;;;27.30;50.20;;;;;;4977615;28;20039;-84
2022/08/17 01:19:12;;;;;;;5.10;4.22;;;27.30;50.30;;;;;;4994052;28;20042;-84
2022/08/17 01:22:00;;;;;;;4.25;3.75;;;27.30;50.30;;;;;;4960743;28;20030;-84
2022/08/17 01:24:26;;;;;;;4.85;3.97;;;27.20;50.30;;;;;;4977384;28;20045;-84
2022/08/17 01:26:52;;;;;;;4.53;3.95;;;27.20;50.20;;;;;;4981327;28;20030;-84
2022/08/17 01:29:19;;;;;;;4.90;4.05;;;27.20;50.30;;;;;;5014811;28;20038;-84
2022/08/17 01:31:49;;;;;;;4.97;4.47;;;27.20;50.30;;;;;;4985314;28;20026;-85
2022/08/17 01:34:17;;;;;;;5.78;4.72;;;27.10;50.40;;;;;;4987457;28;20110;-84
2022/08/17 01:36:45;;;;;;;4.85;4.13;;;27.20;50.50;;;;;;4998563;28;20049;-83
2022/08/17 01:39:22;;;;;;;4.90;4.18;;;27.10;50.40;;;;;;4980202;28;20030;-83
2022/08/17 01:41:52;;;;;;;4.55;4.03;;;27.10;50.50;;;;;;4964809;28;20379;-84
2022/08/17 01:44:19;;;;;;;5.63;4.40;;;27.10;50.50;;;;;;4980282;28;20042;-84
2022/08/17 01:46:45;;;;;;;5.18;3.90;;;27.10;50.50;;;;;;4980831;28;20124;-83
2022/08/17 01:49:11;;;;;;;4.82;4.32;;;27.10;50.50;;;;;;4989791;28;20505;-83
2022/08/17 01:51:39;;;;;;;5.72;4.82;;;27.10;50.60;;;;;;4997815;28;20121;-85
2022/08/17 01:54:10;;;;;;;5.20;4.50;;;27.00;50.60;;;;;;4979719;28;20490;-84
2022/08/17 01:56:40;;;;;;;5.10;4.57;;;27.00;50.70;;;;;;4979973;28;20121;-84
2022/08/17 01:59:09;;;;;;;5.55;4.47;;;27.00;50.70;;;;;;4996574;28;20125;-83
2022/08/17 02:01:35;;;;;;;6.30;4.68;;;27.00;50.70;;;;;;4980304;28;20030;-85
2022/08/17 02:04:02;;;;;;;5.43;4.72;;;27.00;50.70;;;;;;4996274;28;20092;-83
2022/08/17 02:06:31;;;;;;;6.10;5.07;;;27.00;50.80;;;;;;4996062;28;20053;-84
2022/08/17 02:08:57;;;;;;;5.57;4.78;;;27.00;50.80;;;;;;4996013;28;20066;-85
2022/08/17 02:11:23;;;;;;;5.10;4.50;;;27.00;50.80;;;;;;4996047;28;20142;-84
2022/08/17 02:13:51;;;;;;;5.03;4.53;;;26.90;50.70;;;;;;4979786;28;20042;-84
2022/08/17 02:16:18;;;;;;;5.35;4.70;;;26.90;50.80;;;;;;4979526;28;20046;-84
2022/08/17 02:18:47;;;;;;;5.53;4.43;;;26.90;50.80;;;;;;4997105;28;20035;-85
2022/08/17 02:21:13;;;;;;;5.68;4.68;;;26.90;50.80;;;;;;4979464;28;20080;-84
2022/08/17 02:23:44;;;;;;;5.60;4.60;;;26.90;50.90;;;;;;4996001;28;20383;-84
2022/08/17 02:26:13;;;;;;;5.07;4.50;;;26.90;50.90;;;;;;4995941;28;20042;-84
2022/08/17 02:28:39;;;;;;;4.72;4.13;;;26.80;50.80;;;;;;4996025;28;20027;-85
2022/08/17 02:31:09;;;;;;;5.10;4.45;;;26.80;50.80;;;;;;4996718;28;20113;-85
2022/08/17 02:33:35;;;;;;;5.88;4.65;;;26.80;51.00;;;;;;4979378;28;20041;-85
2022/08/17 02:36:04;;;;;;;5.53;4.47;;;26.80;50.90;;;;;;4996115;28;20031;-84
2022/08/17 02:38:30;;;;;;;5.75;4.80;;;26.80;51.00;;;;;;4979097;28;20030;-85
2022/08/17 02:40:59;;;;;;;4.88;4.38;;;26.80;51.00;;;;;;4979211;28;20040;-85
2022/08/17 02:43:27;;;;;;;4.90;4.35;;;26.70;50.90;;;;;;4979485;28;20039;-84
2022/08/17 02:45:53;;;;;;;5.57;4.50;;;26.70;50.90;;;;;;4978796;28;20073;-84
2022/08/17 02:48:24;;;;;;;5.50;4.55;;;26.70;50.90;;;;;;4995310;28;20081;-84
2022/08/17 02:50:50;;;;;;;4.78;4.20;;;26.70;50.90;;;;;;4996538;28;20139;-85
2022/08/17 02:53:16;;;;;;;5.43;4.50;;;26.70;51.00;;;;;;4996010;28;20109;-85
2022/08/17 02:55:42;;;;;;;4.90;4.22;;;26.70;51.00;;;;;;4963140;28;20137;-84
2022/08/17 02:58:09;;;;;;;5.15;4.15;;;26.60;50.90;;;;;;4979398;28;20098;-83
2022/08/17 03:00:46;;;;;;;5.68;4.88;;;26.60;51.00;;;;;;4979087;28;20034;-83
2022/08/17 03:03:13;;;;;;;5.40;4.80;;;26.60;51.10;;;;;;4979090;28;20109;-85
2022/08/17 03:05:39;;;;;;;5.53;4.18;;;26.50;51.00;;;;;;4978756;28;20035;-84
2022/08/17 03:08:06;;;;;;;4.85;4.22;;;26.50;51.00;;;;;;4979398;28;20049;-84
2022/08/17 03:10:32;;;;;;;5.45;4.93;;;26.50;51.10;;;;;;4962669;28;20026;-84
2022/08/17 03:13:01;;;;;;;5.03;4.43;;;26.50;51.20;;;;;;4994929;28;20035;-84
2022/08/17 03:15:30;;;;;;;5.13;4.63;;;26.50;51.20;;;;;;4978615;28;20037;-84
2022/08/17 03:18:00;;;;;;;6.00;4.45;;;26.50;51.20;;;;;;4979254;28;20031;-84
2022/08/17 03:20:28;;;;;;;5.13;4.63;;;26.40;51.20;;;;;;4996364;28;20030;-84
2022/08/17 03:22:56;;;;;;;5.22;4.50;;;26.40;51.20;;;;;;5005237;28;20041;-85
2022/08/17 03:25:27;;;;;;;5.55;4.78;;;26.40;51.30;;;;;;4999215;28;20030;-85
2022/08/17 03:27:54;;;;;;;5.13;4.63;;;26.40;51.30;;;;;;4974203;28;20031;-84
2022/08/17 03:30:24;;;;;;;5.55;4.60;;;26.40;51.30;;;;;;4978502;28;20038;-83
2022/08/17 03:32:51;;;;;;;5.28;4.38;;;26.40;51.30;;;;;;4994465;28;20123;-84
2022/08/17 03:35:23;;;;;;;5.35;4.40;;;26.30;51.30;;;;;;4997144;28;20030;-85
2022/08/17 03:37:49;;;;;;;5.18;4.68;;;26.30;51.40;;;;;;4996491;28;20401;-84
2022/08/17 03:40:16;;;;;;;5.57;4.60;;;26.30;51.50;;;;;;4994675;28;20121;-84
2022/08/17 03:42:42;;;;;;;5.68;4.95;;;26.30;51.50;;;;;;4978462;28;20441;-84
2022/08/17 03:45:14;;;;;;;5.63;4.93;;;26.30;51.50;;;;;;4994001;28;20022;-84
2022/08/17 03:56:41;;;;;;;5.35;4.55;;;26.20;51.50;;;;;;4900007;29;20217;-84
2022/08/17 03:59:16;;;;;;;5.25;4.28;;;26.20;51.50;;;;;;4900201;29;20037;-84
2022/08/17 04:01:43;;;;;;;5.72;4.82;;;26.20;51.60;;;;;;4949362;28;20039;-84
2022/08/17 04:04:10;;;;;;;5.35;4.47;;;26.10;51.60;;;;;;4961636;28;20031;-84
2022/08/17 04:06:37;;;;;;;5.90;4.93;;;26.10;51.70;;;;;;4978019;28;20546;-84
2022/08/17 04:09:04;;;;;;;5.68;4.78;;;26.10;51.70;;;;;;4994890;28;20029;-84
2022/08/17 04:11:31;;;;;;;6.10;5.20;;;26.10;51.70;;;;;;4994999;28;20026;-84
2022/08/17 04:13:57;;;;;;;5.90;5.07;;;26.10;51.80;;;;;;4994301;28;20034;-84
2022/08/17 04:16:25;;;;;;;5.70;5.10;;;26.10;51.80;;;;;;4962126;28;20463;-84
2022/08/17 04:18:51;;;;;;;5.78;5.18;;;26.10;51.80;;;;;;4961592;28;20137;-84
2022/08/17 04:21:18;;;;;;;5.78;5.00;;;26.10;51.80;;;;;;4961274;28;20042;-84
2022/08/17 04:23:45;;;;;;;6.70;5.32;;;26.00;51.70;;;;;;4961486;28;20184;-83
2022/08/17 04:26:13;;;;;;;6.20;5.07;;;26.00;51.80;;;;;;4961052;28;20030;-84
2022/08/17 04:28:40;;;;;;;6.18;4.70;;;26.00;51.80;;;;;;4961518;28;20121;-85
2022/08/17 04:31:08;;;;;;;5.60;4.82;;;26.00;51.90;;;;;;4961624;28;20374;-84
2022/08/17 04:33:38;;;;;;;5.65;4.88;;;26.00;51.90;;;;;;4977121;28;20129;-82
2022/08/17 04:36:06;;;;;;;5.82;4.80;;;26.00;51.90;;;;;;4961137;28;20502;-84
2022/08/17 04:38:35;;;;;;;5.85;5.20;;;26.00;51.90;;;;;;4977548;28;20027;-84
2022/08/17 04:43:49;;;;;;;5.60;4.55;;;26.00;52.10;;;;;;4977403;28;20088;-81
2022/08/17 04:46:19;;;;;;;6.38;4.88;;;26.00;52.00;;;;;;4961601;28;20045;-83
2022/08/17 04:48:48;;;;;;;5.28;4.70;;;25.90;52.00;;;;;;4966571;28;20137;-82
2022/08/17 04:51:26;;;;;;;5.25;4.47;;;25.90;52.00;;;;;;4992752;28;20478;-83
2022/08/17 04:53:55;;;;;;;5.13;4.47;;;25.90;52.00;;;;;;4993677;28;20085;-83
2022/08/17 04:56:24;;;;;;;5.53;4.32;;;25.90;51.90;;;;;;4961700;28;20102;-83
2022/08/17 04:58:52;;;;;;;5.22;4.15;;;25.90;51.90;;;;;;4993403;28;20117;-83
2022/08/17 05:01:20;;;;;;;6.75;4.65;;;25.90;51.90;;;;;;4999442;28;20030;-84
2022/08/17 05:03:46;;;;;;;5.60;4.70;;;25.90;51.90;;;;;;4983759;28;20026;-82
2022/08/17 05:06:12;;;;;;;5.00;4.15;;;25.90;51.90;;;;;;4983564;28;20096;-84
2022/08/17 05:08:38;;;;;;;4.80;4.03;;;25.90;51.90;;;;;;4983686;28;20125;-84
2022/08/17 05:11:04;;;;;;;5.07;4.25;;;25.90;51.90;;;;;;5001461;28;20058;-83
2022/08/17 05:13:30;;;;;;;5.72;4.40;;;25.90;51.90;;;;;;4986006;28;20053;-83
2022/08/17 05:15:58;;;;;;;5.00;3.85;;;25.80;51.80;;;;;;5016830;28;20035;-82
2022/08/17 05:18:25;;;;;;;4.60;3.75;;;25.80;51.80;;;;;;4993864;28;20490;-83
2022/08/17 05:20:51;;;;;;;5.32;4.07;;;25.80;51.80;;;;;;5008189;28;20113;-83
2022/08/17 05:23:19;;;;;;;5.30;4.60;;;25.80;51.90;;;;;;4987695;28;20048;-83
2022/08/17 05:25:48;;;;;;;5.00;3.83;;;25.80;51.90;;;;;;5000276;28;20113;-80
2022/08/17 05:28:15;;;;;;;4.78;4.10;;;25.80;51.90;;;;;;4998980;28;20026;-82
2022/08/17 05:30:42;;;;;;;5.00;4.38;;;25.80;52.00;;;;;;4998976;28;20058;-83
2022/08/17 05:33:15;;;;;;;5.00;4.35;;;25.80;52.00;;;;;;4967425;28;20038;-83
2022/08/17 05:35:45;;;;;;;6.05;4.28;;;25.80;52.00;;;;;;4998957;28;20061;-82
2022/08/17 05:38:15;;;;;;;4.38;3.85;;;25.80;51.90;;;;;;4999023;28;20114;-82
2022/08/17 05:40:42;;;;;;;5.50;4.47;;;25.80;52.00;;;;;;4967104;28;20022;-82
2022/08/17 05:43:07;;;;;;;4.88;3.95;;;25.80;52.00;;;;;;4966742;28;20023;-82
2022/08/17 05:45:36;;;;;;;4.45;4.03;;;25.80;52.00;;;;;;4998718;28;20034;-81
2022/08/17 05:48:02;;;;;;;5.43;4.53;;;25.80;52.00;;;;;;5003201;28;20046;-83
2022/08/17 05:50:38;;;;;;;4.97;4.45;;;25.80;52.10;;;;;;4986316;28;20133;-83
2022/08/17 05:53:18;;;;;;;5.20;4.28;;;25.80;52.20;;;;;;4986154;28;20525;-84
2022/08/17 05:55:53;;;;;;;5.03;4.07;;;25.80;52.20;;;;;;5002541;28;20414;-83
2022/08/17 05:58:44;;;;;;;5.80;4.00;;;25.70;52.10;;;;;;4987138;28;20029;-84
2022/08/17 06:01:16;;;;;;;4.78;4.03;;;25.70;52.10;;;;;;4986504;28;20041;-83
2022/08/17 06:04:03;;;;;;;4.85;3.95;;;25.70;52.10;;;;;;5002148;28;20045;-84
2022/08/17 06:06:40;;;;;;;5.65;4.00;;;25.70;52.10;;;;;;4986326;28;20030;-84
2022/08/17 06:09:40;;;;;;;4.70;4.07;;;25.80;52.30;;;;;;5002020;28;20116;-84
2022/08/17 06:12:20;;;;;;;4.60;4.10;;;25.70;52.30;;;;;;4999461;28;20088;-85
2022/08/17 06:15:25;;;;;;;4.80;4.13;;;25.70;52.30;;;;;;4999147;28;20038;-84
2022/08/17 06:17:58;;;;;;;5.18;3.97;;;25.70;52.30;;;;;;4986216;28;20052;-84
2022/08/17 06:20:31;;;;;;;4.67;3.90;;;25.70;52.20;;;;;;4999434;28;20029;-85
2022/08/17 06:23:07;;;;;;;4.60;3.97;;;25.70;52.30;;;;;;4999280;28;20037;-83
2022/08/17 06:25:41;;;;;;;5.38;4.30;;;25.70;52.40;;;;;;4983133;28;20462;-82
2022/08/17 06:28:14;;;;;;;5.43;4.50;;;25.70;52.40;;;;;;4998508;28;20108;-85
2022/08/17 06:30:48;;;;;;;4.85;4.35;;;25.70;52.50;;;;;;4983012;28;20030;-82
2022/08/17 06:33:34;;;;;;;5.18;4.28;;;25.70;52.60;;;;;;4999159;28;20034;-84
2022/08/17 06:36:02;;;;;;;5.78;4.55;;;25.70;52.60;;;;;;4999227;28;20477;-86
2022/08/17 06:38:46;;;;;;;5.07;4.07;;;25.70;52.60;;;;;;4982834;28;20026;-85
2022/08/17 06:41:15;;;;;;;5.20;4.50;;;25.70;52.70;;;;;;4999148;28;20030;-83
2022/08/17 06:44:04;;;;;;;5.20;4.28;;;25.70;52.60;;;;;;4998859;28;20026;-85
2022/08/17 06:46:37;;;;;;;4.80;4.13;;;25.70;52.80;;;;;;4998891;28;20431;-84
2022/08/17 06:49:25;;;;;;;5.40;4.40;;;25.70;52.80;;;;;;4995299;28;20038;-85
2022/08/17 06:52:05;;;;;;;5.13;4.32;;;25.70;53.00;;;;;;4996254;28;20026;-83
2022/08/17 06:54:48;;;;;;;4.75;4.28;;;25.60;52.80;;;;;;4978929;28;20034;-85
2022/08/17 06:57:29;;;;;;;5.13;4.40;;;25.70;52.90;;;;;;4982569;28;20499;-85
2022/08/17 07:00:00;;;;;;;5.28;4.38;;;25.70;52.90;;;;;;4979652;28;20038;-85
2022/08/17 07:02:49;;;;;;;5.35;4.50;;;25.70;52.90;;;;;;4995061;28;20026;-83
2022/08/17 07:05:18;;;;;;;5.35;4.28;;;25.60;52.80;;;;;;4978551;28;20037;-86
2022/08/17 07:08:02;;;;;;;5.55;4.28;;;25.60;52.80;;;;;;4995111;28;20035;-83
2022/08/17 07:10:39;;;;;;;5.60;3.88;;;25.60;52.90;;;;;;4995318;28;20026;-84
2022/08/17 07:13:20;;;;;;;5.43;4.45;;;25.60;52.80;;;;;;4995968;28;20045;-85
2022/08/17 07:15:48;;;;;;;5.53;4.57;;;25.60;52.90;;;;;;4979882;28;20034;-86
2022/08/17 07:18:14;;;;;;;5.00;4.50;;;25.60;52.90;;;;;;4962641;28;20125;-85
2022/08/17 07:20:45;;;;;;;5.57;4.70;;;25.60;52.90;;;;;;4995089;28;20458;-86
2022/08/17 07:23:25;;;;;;;5.68;4.65;;;25.60;53.00;;;;;;4996232;28;20037;-88
2022/08/17 07:25:51;;;;;;;5.00;4.40;;;25.60;53.10;;;;;;4995547;28;20034;-84
2022/08/17 07:28:34;;;;;;;5.05;4.47;;;25.60;53.00;;;;;;4978879;28;20482;-85
2022/08/17 07:30:59;;;;;;;5.60;4.82;;;25.60;53.20;;;;;;4979571;28;20048;-84
2022/08/17 07:33:29;;;;;;;5.90;4.97;;;25.60;53.10;;;;;;4979113;28;20061;-83
2022/08/17 07:35:56;;;;;;;5.63;4.75;;;25.60;53.10;;;;;;4978585;28;20030;-84
2022/08/17 07:38:27;;;;;;;5.15;4.65;;;25.60;53.10;;;;;;4978231;28;20023;-84
2022/08/17 07:40:56;;;;;;;6.03;4.95;;;25.60;53.10;;;;;;4994859;28;20045;-85
2022/08/17 07:43:35;;;;;;;6.15;5.22;;;25.60;53.20;;;;;;4994714;28;20034;-85
2022/08/17 07:49:17;;;;;;;5.90;4.80;;;25.60;53.30;;;;;;5001988;28;20046;-85
2022/08/17 07:51:44;;;;;;;5.38;4.80;;;25.60;53.40;;;;;;4981532;28;20133;-85
2022/08/17 07:54:21;;;;;;;6.38;4.93;;;25.50;53.20;;;;;;4981382;28;20033;-84
2022/08/17 07:56:49;;;;;;;5.70;4.97;;;25.50;53.40;;;;;;4997727;28;20092;-84
2022/08/17 07:59:17;;;;;;;5.75;4.93;;;25.50;53.40;;;;;;4997592;28;20021;-86
2022/08/17 08:02:04;;;;;;;6.20;5.03;;;25.50;53.50;;;;;;4997381;28;20029;-85
2022/08/17 08:04:44;;;;;;;5.72;5.15;;;25.60;53.70;;;;;;4981547;28;20032;-84
2022/08/17 08:07:56;;;;;;;5.50;4.90;;;25.50;53.60;;;;;;4997468;28;20032;-85
2022/08/17 08:10:31;;;;;;;5.57;4.95;;;25.60;53.80;;;;;;5011866;28;20122;-84
2022/08/17 08:13:30;;;;;;;6.38;5.38;;;25.50;53.60;;;;;;5014626;28;20054;-84
2022/08/17 08:16:25;;;;;;;6.55;5.85;;;25.50;53.90;;;;;;4949908;28;20038;-84
2022/08/17 08:18:55;;;;;;;5.55;4.95;;;25.50;54.00;;;;;;5015069;28;20029;-84
2022/08/17 08:21:28;;;;;;;6.18;5.28;;;25.60;53.90;;;;;;5014411;28;20026;-84
2022/08/17 08:24:06;;;;;;;6.87;6.17;;;25.50;53.90;;;;;;4997234;28;20092;-85
2022/08/17 08:26:54;;;;;;;6.30;5.32;;;25.50;54.00;;;;;;5014223;28;20080;-85
2022/08/17 08:29:49;;;;;;;6.30;5.70;;;25.50;54.30;;;;;;4997226;28;20034;-85
2022/08/17 08:32:30;;;;;;;6.53;5.40;;;25.60;54.40;;;;;;4998480;28;20030;-85
2022/08/17 08:35:02;;;;;;;7.70;6.03;;;25.60;54.30;;;;;;5014461;28;20037;-85
2022/08/17 08:37:31;;;;;;;6.30;5.60;;;25.60;54.30;;;;;;5014357;28;20053;-85
2022/08/17 08:40:01;;;;;;;6.57;5.82;;;25.60;54.30;;;;;;5014731;28;20512;-85
2022/08/17 08:42:48;;;;;;;7.18;5.90;;;25.50;54.20;;;;;;4980959;28;20064;-85
2022/08/17 08:45:25;;;;;;;6.40;5.28;;;25.50;54.40;;;;;;4997363;28;20037;-84
2022/08/17 08:48:16;;;;;;;6.40;5.43;;;25.60;54.60;;;;;;4997049;28;20367;-82
2022/08/17 08:50:53;;;;;;;6.22;5.63;;;25.60;54.60;;;;;;5014189;28;20038;-85
2022/08/17 08:53:35;;;;;;;6.40;5.53;;;25.60;54.50;;;;;;4980637;28;20034;-85
2022/08/17 08:56:08;;;;;;;6.10;5.32;;;25.60;54.60;;;;;;4980654;28;20021;-85
2022/08/17 08:58:50;;;;;;;5.68;5.07;;;25.60;54.40;;;;;;5013955;28;20109;-85
2022/08/17 09:01:47;;;;;;;5.55;4.95;;;25.60;54.40;;;;;;4996739;28;20030;-85
2022/08/17 09:04:45;;;;;;;5.57;4.90;;;25.60;54.40;;;;;;4981494;28;20026;-86
2022/08/17 09:07:11;;;;;;;5.55;4.90;;;25.60;54.40;;;;;;4965922;28;20048;-84
2022/08/17 09:09:57;;;;;;;6.45;5.15;;;25.70;54.40;;;;;;4997600;28;20029;-84
2022/08/17 09:12:55;;;;;;;5.57;4.97;;;25.70;54.50;;;;;;4996444;28;20080;-84
2022/08/17 09:15:27;;;;;;;6.65;5.50;;;25.70;54.50;;;;;;4980364;28;20042;-84
2022/08/17 09:18:18;;;;;;;5.78;5.15;;;25.70;54.40;;;;;;4996691;28;20128;-85
2022/08/17 09:20:49;;;;;;;6.35;5.50;;;25.70;54.60;;;;;;4996729;28;20041;-85
2022/08/17 09:23:37;;;;;;;6.80;5.53;;;25.70;54.50;;;;;;4996602;28;20061;-86
2022/08/17 09:26:12;;;;;;;7.35;6.28;;;25.80;55.00;;;;;;4996045;28;20026;-84
2022/08/17 09:28:42;;;;;;;6.88;6.18;;;25.80;55.30;;;;;;5013846;28;20402;-89
2022/08/17 09:31:15;;;;;;;8.05;7.25;;;25.80;55.60;;;;;;4997267;28;20459;-88
2022/08/17 09:33:47;;;;;;;8.65;7.53;;;25.80;55.90;;;;;;5014648;28;20072;-88
2022/08/17 09:36:29;;;;;;;7.22;6.50;;;25.80;56.20;;;;;;4997124;28;20026;-89
2022/08/17 09:39:07;;;;;;;7.78;6.97;;;25.80;56.30;;;;;;4997026;28;20037;-85
2022/08/17 09:41:57;;;;;;;7.28;6.55;;;25.90;56.40;;;;;;4997119;28;20034;-89
2022/08/17 09:44:36;;;;;;;7.05;6.35;;;25.90;56.60;;;;;;4996894;28;20113;-90
2022/08/17 09:47:28;;;;;;;7.18;6.47;;;25.90;56.70;;;;;;5017523;28;20037;-87
2022/08/17 09:50:02;;;;;;;7.32;6.50;;;25.90;56.70;;;;;;4984139;28;20141;-88
2022/08/17 09:52:30;;;;;;;7.57;6.80;;;25.90;56.60;;;;;;5000291;28;20034;-87
2022/08/17 09:54:58;;;;;;;7.63;6.75;;;26.00;56.70;;;;;;5000066;28;20117;-86
2022/08/17 09:57:29;;;;;;;7.00;6.30;;;26.00;56.80;;;;;;5000301;28;20088;-87
2022/08/17 10:00:12;;;;;;;7.05;6.35;;;26.00;56.80;;;;;;5000659;28;20096;-88
2022/08/17 10:03:14;;;;;;;7.25;6.55;;;26.00;56.90;;;;;;5000722;28;20097;-86
2022/08/17 10:06:22;;;;;;;6.57;5.93;;;26.00;56.90;;;;;;4995860;28;20026;-85
2022/08/17 10:09:08;;;;;;;7.72;6.00;;;26.10;56.90;;;;;;4945035;29;20031;-85
2022/08/17 10:15:12;;;;;;;7.15;5.97;;;26.10;56.90;;;;;;4992577;28;20549;-87
2022/08/17 10:18:02;;;;;;;6.80;5.53;;;26.20;56.80;;;;;;4972445;28;20042;-87
2022/08/17 10:20:33;;;;;;;6.43;5.60;;;26.20;56.60;;;;;;5000961;28;20030;-92
2022/08/17 10:26:14;;;;;;;6.45;4.95;;;26.30;56.50;;;;;;4999552;28;20125;-85
2022/08/17 10:28:52;;;;;;;6.35;5.55;;;26.30;56.40;;;;;;4999073;28;20033;-92
2022/08/17 10:31:28;;;;;;;5.68;4.93;;;26.30;56.30;;;;;;4984318;28;20363;-87
2022/08/17 10:34:06;;;;;;;6.07;5.38;;;26.40;56.30;;;;;;5004400;28;20061;-93
2022/08/17 10:36:48;;;;;;;6.20;5.00;;;26.40;56.20;;;;;;5004665;28;20053;-90
2022/08/17 10:39:23;;;;;;;5.95;5.35;;;26.40;56.10;;;;;;5001279;28;20104;-90
2022/08/17 10:41:51;;;;;;;;;;;26.50;56.20;;;;;;5017481;28;20030;-90
2022/08/17 10:44:33;;;;;;;6.47;4.40;;;26.50;55.90;;;;;;4999824;28;19912;-91
2022/08/17 10:47:10;;;;;;;4.97;4.47;;;26.60;56.00;;;;;;4983915;28;20116;-92
2022/08/17 10:49:38;;;;;;;5.70;4.75;;;26.50;55.90;;;;;;5018474;28;20038;-91
2022/08/17 10:52:26;;;;;;;5.32;4.60;;;26.60;55.90;;;;;;5003058;28;20108;-91
2022/08/17 10:54:57;;;;;;;5.75;4.82;;;26.60;55.90;;;;;;5033135;28;20050;-86
2022/08/17 10:57:32;;;;;;;5.25;4.75;;;26.70;55.70;;;;;;5022252;28;20040;-86
2022/08/17 11:00:00;;;;;;;5.43;4.72;;;26.70;55.60;;;;;;5008861;28;20114;-92
2022/08/17 11:02:40;;;;;;;5.30;4.45;;;26.70;55.50;;;;;;4982902;28;20034;-84
2022/08/17 11:05:37;;;;;;;5.78;4.60;;;26.80;55.50;;;;;;4998276;28;20033;-84
2022/08/17 11:08:24;;;;;;;6.45;4.53;;;26.80;55.60;;;;;;4998716;28;20044;-85
2022/08/17 11:11:10;;;;;;;4.95;4.22;;;26.80;55.40;;;;;;4999037;28;20450;-85
2022/08/17 11:14:15;;;;;;;4.93;4.03;;;26.80;55.40;;;;;;4999067;28;20038;-86
2022/08/17 11:16:56;;;;;;;5.22;4.45;;;26.80;55.40;;;;;;4984794;28;20030;-86
2022/08/17 11:19:55;;;;;;;4.65;3.92;;;26.90;55.30;;;;;;5008045;28;20032;-86
2022/08/17 11:22:42;;;;;;;5.28;4.20;;;26.90;55.40;;;;;;5006979;28;20026;-86
2022/08/17 11:25:14;;;;;;;4.65;4.15;;;26.90;55.40;;;;;;4987189;28;20034;-85
2022/08/17 11:27:42;;;;;;;5.38;4.82;;;26.90;55.40;;;;;;4984835;28;20022;-85
2022/08/17 11:30:34;;;;;;;6.78;5.30;;;26.90;55.50;;;;;;4982749;28;20040;-86
2022/08/17 11:33:35;;;;;;;5.25;4.60;;;26.90;55.60;;;;;;4998418;28;20068;-86
2022/08/17 11:36:13;;;;;;;6.20;5.10;;;26.90;55.70;;;;;;4998329;28;20033;-86
2022/08/17 11:38:47;;;;;;;5.63;4.88;;;27.00;55.70;;;;;;5015167;28;20026;-86
2022/08/17 11:41:27;;;;;;;5.55;4.65;;;27.00;55.70;;;;;;5015626;28;20030;-86
2022/08/17 11:44:11;;;;;;;5.45;4.85;;;27.00;55.70;;;;;;4998263;28;20038;-86
2022/08/17 11:52:49;;;;;;;5.85;4.80;;;27.00;55.60;;;;;;4997892;28;20128;-85
2022/08/17 11:55:31;;;;;;;6.15;5.03;;;27.00;55.70;;;;;;4997685;28;20030;-82
2022/08/17 11:58:01;;;;;;;5.47;4.90;;;27.00;55.90;;;;;;4980923;28;20112;-85
2022/08/17 12:00:48;;;;;;;5.65;5.10;;;26.90;55.80;;;;;;4980729;28;20466;-85
2022/08/17 12:03:32;;;;;;;6.35;5.28;;;26.90;55.90;;;;;;4997820;28;20065;-86
2022/08/17 12:06:22;;;;;;;6.10;5.20;;;27.00;56.00;;;;;;4997829;28;20030;-84
2022/08/17 12:09:17;;;;;;;7.18;5.15;;;26.90;55.90;;;;;;5014267;28;20029;-85
2022/08/17 12:11:52;;;;;;;6.68;5.57;;;27.00;56.00;;;;;;4981053;28;20065;-86
2022/08/17 12:14:25;;;;;;;6.20;5.50;;;26.90;56.00;;;;;;5014356;28;20037;-85
2022/08/17 12:17:13;;;;;;;5.93;5.32;;;26.90;56.00;;;;;;5014681;28;20030;-83
2022/08/17 12:19:42;;;;;;;6.07;4.97;;;27.00;56.20;;;;;;4980730;28;20038;-84
2022/08/17 12:22:12;;;;;;;5.80;5.20;;;26.90;56.00;;;;;;5014294;28;20418;-84
2022/08/17 12:24:59;;;;;;;6.70;6.00;;;26.90;56.00;;;;;;4996361;28;20544;-86
2022/08/17 12:27:30;;;;;;;5.88;5.28;;;26.90;56.20;;;;;;4980388;28;20022;-84
2022/08/17 12:29:57;;;;;;;6.45;5.75;;;26.90;56.10;;;;;;4996832;28;20040;-85
2022/08/17 12:32:31;;;;;;;6.30;5.63;;;27.00;56.20;;;;;;5013982;28;20048;-85
2022/08/17 12:34:57;;;;;;;6.60;5.97;;;26.90;56.20;;;;;;4997166;28;20454;-85
2022/08/17 12:37:30;;;;;;;6.28;5.53;;;27.00;56.10;;;;;;4980595;28;20033;-85
2022/08/17 12:39:58;;;;;;;6.53;5.60;;;26.90;56.10;;;;;;4997039;28;20037;-86
2022/08/17 12:42:36;;;;;;;6.18;5.57;;;26.90;55.90;;;;;;4985543;28;20120;-84
2022/08/17 12:45:04;;;;;;;5.93;5.32;;;26.90;56.00;;;;;;5011379;28;20538;-86
2022/08/17 12:47:30;;;;;;;6.68;5.55;;;26.90;55.80;;;;;;5010994;28;20098;-86
2022/08/17 12:50:10;;;;;;;6.63;5.70;;;26.90;55.80;;;;;;4965873;28;20058;-86
2022/08/17 12:52:39;;;;;;;6.72;6.03;;;26.90;55.90;;;;;;4996912;28;20048;-86
2022/08/17 12:55:21;;;;;;;6.32;5.70;;;26.90;55.80;;;;;;4996688;28;20481;-86
2022/08/17 12:57:53;;;;;;;7.15;5.88;;;26.90;56.10;;;;;;4996913;28;20068;-85
2022/08/17 13:00:42;;;;;;;6.72;5.65;;;26.90;56.00;;;;;;4981266;28;20057;-86
2022/08/17 13:03:20;;;;;;;6.38;5.47;;;26.90;56.20;;;;;;4980716;28;20029;-86
2022/08/17 13:06:08;;;;;;;6.65;5.82;;;26.90;56.20;;;;;;4996895;28;20134;-85
2022/08/17 13:08:43;;;;;;;6.15;5.35;;;26.90;56.30;;;;;;4997096;28;20041;-86
2022/08/17 13:11:20;;;;;;;5.75;4.97;;;26.90;56.20;;;;;;4996526;28;20029;-84
2022/08/17 13:13:50;;;;;;;6.00;5.20;;;26.90;56.30;;;;;;4996969;28;20042;-85
2022/08/17 13:16:34;;;;;;;6.40;5.20;;;26.90;56.20;;;;;;4980389;28;20041;-86
2022/08/17 13:19:14;;;;;;;6.53;5.75;;;26.90;56.30;;;;;;4964171;28;20030;-86
2022/08/17 13:21:49;;;;;;;6.18;5.35;;;26.90;56.20;;;;;;5017804;28;20037;-87
2022/08/17 13:24:23;;;;;;;6.15;5.35;;;26.90;56.30;;;;;;5000952;28;20092;-85
2022/08/17 13:26:59;;;;;;;6.38;5.38;;;26.90;56.10;;;;;;4984486;28;20116;-85
2022/08/17 13:29:38;;;;;;;5.50;4.82;;;26.80;56.00;;;;;;5017896;28;20036;-86
2022/08/17 13:32:05;;;;;;;5.72;5.13;;;26.80;56.00;;;;;;5001412;28;20030;-87
2022/08/17 13:34:49;;;;;;;6.78;6.07;;;26.90;56.00;;;;;;5000826;28;20040;-87
2022/08/17 13:37:33;;;;;;;6.65;5.95;;;26.90;56.20;;;;;;4984550;28;20030;-86
2022/08/17 13:40:10;;;;;;;6.53;5.50;;;26.90;56.10;;;;;;5017880;28;20053;-86
2022/08/17 13:42:41;;;;;;;6.00;5.15;;;26.80;55.90;;;;;;5000598;28;20030;-86
2022/08/17 13:45:30;;;;;;;5.88;5.28;;;26.80;55.80;;;;;;5000207;28;20037;-87
2022/08/17 13:48:08;;;;;;;5.88;5.18;;;26.80;56.00;;;;;;5000656;28;20064;-88
2022/08/17 13:51:02;;;;;;;6.32;5.57;;;26.80;56.00;;;;;;4999848;28;20036;-88
2022/08/17 13:53:34;;;;;;;7.45;5.45;;;26.80;55.90;;;;;;4999206;28;20061;-87